Time;durP1;ratioP1;P1;durP2;ratioP2;P2;SDS_P1;SDS_P2;PMS_P1;PMS_P2;Temp;Humidity;BMP_temperature;BMP_pressure;BME280_temperature;BME280_humidity;BME280_pressure;Samples;Min_cycle;Max_cycle;Signal;HPM_P1;HPM_P2
2023/02/02 00:01:40;;;;;;;12.82;2.65;;;8.10;99.90;;;;;;5007764;28;20109;-72
2023/02/02 00:04:06;;;;;;;6.68;1.52;;;8.10;99.90;;;;;;5007488;28;20037;-74
2023/02/02 00:06:32;;;;;;;10.02;1.55;;;8.10;99.90;;;;;;5007453;28;20026;-73
2023/02/02 00:08:59;;;;;;;5.97;1.35;;;8.00;99.90;;;;;;5007764;28;20048;-72
2023/02/02 00:11:26;;;;;;;12.90;1.80;;;8.00;99.90;;;;;;5005712;28;20166;-72
2023/02/02 00:13:51;;;;;;;14.02;2.95;;;8.00;99.90;;;;;;5007405;28;20073;-71
2023/02/02 00:16:26;;;;;;;15.00;1.38;;;7.90;99.90;;;;;;5007476;28;20517;-72
2023/02/02 00:18:59;;;;;;;12.05;2.30;;;8.00;99.90;;;;;;5008848;28;20133;-71
2023/02/02 00:21:25;;;;;;;12.13;1.90;;;7.90;99.90;;;;;;5007681;28;20069;-71
2023/02/02 00:23:51;;;;;;;28.35;2.30;;;7.90;99.90;;;;;;5007161;28;20065;-71
2023/02/02 00:26:18;;;;;;;19.48;2.28;;;7.90;99.90;;;;;;5009537;28;20519;-74
2023/02/02 00:28:43;;;;;;;12.43;2.13;;;7.90;99.90;;;;;;5006127;28;20088;-71
2023/02/02 00:31:09;;;;;;;16.27;1.85;;;7.90;99.90;;;;;;5007433;28;20030;-71
2023/02/02 00:33:35;;;;;;;13.07;2.78;;;7.90;99.90;;;;;;5006549;28;20030;-71
2023/02/02 00:36:00;;;;;;;14.15;1.92;;;7.90;99.90;;;;;;5007204;28;20037;-71
2023/02/02 00:38:26;;;;;;;12.70;1.75;;;8.00;99.90;;;;;;5007611;28;20029;-71
2023/02/02 00:40:52;;;;;;;20.27;2.20;;;7.90;99.90;;;;;;5007125;28;20165;-71
2023/02/02 00:43:17;;;;;;;16.30;2.05;;;7.90;99.90;;;;;;5007025;28;20049;-71
2023/02/02 00:45:43;;;;;;;5.28;1.00;;;7.80;99.90;;;;;;5007264;28;20124;-71
2023/02/02 00:48:12;;;;;;;9.48;1.30;;;7.70;99.90;;;;;;5002672;28;20513;-72
2023/02/02 00:50:38;;;;;;;7.00;1.02;;;7.70;99.90;;;;;;5006998;28;20046;-71
2023/02/02 00:53:03;;;;;;;5.03;0.90;;;7.70;99.90;;;;;;5003100;28;20112;-71
2023/02/02 00:55:29;;;;;;;6.53;1.42;;;7.60;99.90;;;;;;5007127;28;20045;-71
2023/02/02 00:57:54;;;;;;;3.50;0.88;;;7.50;99.90;;;;;;5006953;28;20033;-71
2023/02/02 01:00:23;;;;;;;5.55;0.80;;;7.50;99.90;;;;;;4998936;28;20506;-71
2023/02/02 01:02:50;;;;;;;6.05;0.95;;;7.40;99.90;;;;;;5006458;28;20328;-72
2023/02/02 01:05:16;;;;;;;7.68;1.50;;;7.40;99.90;;;;;;5007020;28;20038;-71
2023/02/02 01:07:42;;;;;;;11.57;1.23;;;7.30;99.90;;;;;;5006651;28;20091;-71
2023/02/02 01:10:12;;;;;;;5.40;0.63;;;7.30;99.90;;;;;;5005982;28;20042;-71
2023/02/02 01:12:37;;;;;;;8.13;1.80;;;7.30;99.90;;;;;;5006456;28;20065;-70
2023/02/02 01:15:04;;;;;;;10.32;1.88;;;7.30;99.90;;;;;;5006511;28;20038;-71
2023/02/02 01:17:29;;;;;;;8.45;0.82;;;7.30;99.90;;;;;;5007990;28;20026;-71
2023/02/02 01:19:55;;;;;;;8.98;2.08;;;7.30;99.90;;;;;;5004274;28;20037;-70
2023/02/02 01:22:21;;;;;;;8.70;1.75;;;7.30;99.90;;;;;;5006871;28;20058;-71
2023/02/02 01:24:47;;;;;;;9.45;1.20;;;7.30;99.90;;;;;;5006572;28;20046;-71
2023/02/02 01:27:12;;;;;;;13.95;1.60;;;7.30;99.90;;;;;;5008345;28;20030;-71
2023/02/02 01:29:38;;;;;;;6.10;1.80;;;7.30;99.90;;;;;;5006684;28;20466;-70
2023/02/02 01:32:04;;;;;;;9.55;1.77;;;7.30;99.90;;;;;;5007004;28;20121;-71
2023/02/02 01:34:29;;;;;;;8.95;1.67;;;7.30;99.90;;;;;;5006556;28;20038;-71
2023/02/02 01:36:55;;;;;;;12.73;2.15;;;7.30;99.90;;;;;;5006490;28;21294;-71
2023/02/02 01:39:21;;;;;;;13.07;1.85;;;7.30;99.90;;;;;;5006786;28;20053;-72
2023/02/02 01:41:46;;;;;;;13.77;2.15;;;7.30;99.90;;;;;;5006578;28;20030;-71
2023/02/02 01:44:49;;;;;;;14.35;1.90;;;7.30;99.90;;;;;;5005379;28;20107;-71
2023/02/02 01:47:15;;;;;;;13.70;2.22;;;7.30;99.90;;;;;;5004190;28;20038;-71
2023/02/02 01:49:41;;;;;;;14.80;2.78;;;7.40;99.90;;;;;;5002526;28;20052;-71
2023/02/02 01:52:08;;;;;;;11.90;2.20;;;7.40;99.90;;;;;;5006562;28;20038;-72
2023/02/02 01:54:39;;;;;;;16.08;3.05;;;7.40;99.90;;;;;;5006709;28;20117;-71
2023/02/02 01:57:10;;;;;;;11.73;1.60;;;7.40;99.90;;;;;;5006510;28;20041;-71
2023/02/02 01:59:37;;;;;;;19.60;2.60;;;7.50;99.90;;;;;;5004935;28;20548;-71
2023/02/02 02:02:03;;;;;;;14.75;3.50;;;7.50;99.90;;;;;;5009138;28;20034;-71
2023/02/02 02:04:30;;;;;;;30.15;3.55;;;7.50;99.90;;;;;;5010182;28;20824;-71
2023/02/02 02:06:56;;;;;;;15.23;2.30;;;7.50;99.90;;;;;;5010039;28;20109;-71
2023/02/02 02:09:22;;;;;;;14.95;2.10;;;7.60;99.90;;;;;;5006643;28;20072;-70
2023/02/02 02:11:47;;;;;;;11.63;2.00;;;7.60;99.90;;;;;;5009884;28;20060;-71
2023/02/02 02:17:07;;;;;;;15.50;2.72;;;7.50;99.90;;;;;;5005692;28;20037;-71
2023/02/02 02:26:34;;;;;;;10.00;1.67;;;7.70;99.90;;;;;;5009776;28;20077;-72
2023/02/02 02:29:31;;;;;;;13.70;2.35;;;7.70;99.90;;;;;;5001321;28;20518;-72
2023/02/02 02:32:26;;;;;;;13.25;1.63;;;7.70;99.90;;;;;;5005292;28;20061;-70
2023/02/02 02:35:22;;;;;;;19.02;2.95;;;7.70;99.90;;;;;;5008718;28;20041;-71
2023/02/02 02:37:52;;;;;;;12.57;1.98;;;7.70;99.90;;;;;;5007473;28;20137;-70
2023/02/02 02:40:24;;;;;;;17.75;1.63;;;7.80;99.90;;;;;;5008972;28;20112;-71
2023/02/02 02:42:58;;;;;;;21.63;3.03;;;7.80;99.90;;;;;;5009235;28;20125;-71
2023/02/02 02:45:26;;;;;;;12.07;2.33;;;7.80;99.90;;;;;;5009208;28;20120;-71
2023/02/02 02:47:53;;;;;;;18.48;2.47;;;7.80;99.90;;;;;;5008781;28;20038;-71
2023/02/02 02:50:19;;;;;;;15.05;2.40;;;7.70;99.90;;;;;;5009271;28;20528;-72
2023/02/02 02:52:46;;;;;;;12.75;1.55;;;7.80;99.90;;;;;;5009189;28;20069;-70
2023/02/02 02:55:12;;;;;;;14.45;1.88;;;7.80;99.90;;;;;;5008545;28;20054;-72
2023/02/02 02:58:00;;;;;;;15.40;1.88;;;7.80;99.90;;;;;;5008849;28;20536;-71
2023/02/02 03:01:04;;;;;;;17.00;2.85;;;7.80;99.90;;;;;;5008868;28;20453;-72
2023/02/02 03:03:52;;;;;;;17.27;3.20;;;7.70;99.90;;;;;;4978570;28;20041;-71
2023/02/02 03:06:49;;;;;;;15.15;1.60;;;7.70;99.90;;;;;;5007118;28;20119;-71
2023/02/02 03:09:20;;;;;;;15.30;1.70;;;7.80;99.90;;;;;;5004121;28;20065;-71
2023/02/02 03:11:46;;;;;;;14.45;2.03;;;7.80;99.90;;;;;;5007047;28;20042;-70
2023/02/02 03:14:11;;;;;;;16.40;3.05;;;7.80;99.90;;;;;;5006312;28;20038;-71
2023/02/02 03:16:38;;;;;;;14.15;2.53;;;7.80;99.90;;;;;;5008518;28;20120;-71
2023/02/02 03:19:05;;;;;;;18.10;2.33;;;7.90;99.90;;;;;;5008555;28;20029;-71
2023/02/02 03:21:31;;;;;;;12.32;2.70;;;7.90;99.90;;;;;;5009209;28;20115;-70
2023/02/02 03:23:57;;;;;;;9.05;1.80;;;7.90;99.90;;;;;;5008067;28;20033;-73
2023/02/02 03:26:24;;;;;;;13.57;2.92;;;7.90;99.90;;;;;;5009405;28;20121;-71
2023/02/02 03:28:50;;;;;;;13.07;2.25;;;8.00;99.90;;;;;;5008774;28;20042;-72
2023/02/02 03:31:16;;;;;;;15.68;1.98;;;8.10;99.90;;;;;;5008640;28;20034;-71
2023/02/02 03:33:41;;;;;;;16.17;2.70;;;8.10;99.90;;;;;;5008161;28;20398;-71
2023/02/02 03:36:08;;;;;;;19.75;1.98;;;8.00;99.90;;;;;;5007848;28;20030;-71
2023/02/02 03:38:34;;;;;;;12.82;2.63;;;8.10;99.90;;;;;;5003741;28;20129;-71
2023/02/02 03:40:59;;;;;;;11.02;2.72;;;8.10;99.90;;;;;;5007350;28;20062;-72
2023/02/02 03:43:25;;;;;;;13.35;2.15;;;8.10;99.90;;;;;;5008321;28;20062;-71
2023/02/02 03:46:03;;;;;;;18.52;2.55;;;8.10;99.90;;;;;;5007805;28;20026;-71
2023/02/02 03:48:28;;;;;;;16.35;2.25;;;8.10;99.90;;;;;;5005062;28;20491;-72
2023/02/02 03:50:54;;;;;;;10.13;2.50;;;8.10;99.90;;;;;;5007749;28;20114;-71
2023/02/02 03:53:20;;;;;;;11.38;2.40;;;8.10;99.90;;;;;;5007890;28;20045;-71
2023/02/02 03:55:46;;;;;;;11.93;1.85;;;8.10;99.90;;;;;;5007835;28;20030;-72
2023/02/02 03:58:11;;;;;;;17.88;2.30;;;8.10;99.90;;;;;;4995169;28;20390;-72
2023/02/02 04:00:37;;;;;;;6.65;1.70;;;8.10;99.90;;;;;;5008183;28;20045;-72
2023/02/02 04:03:02;;;;;;;11.27;2.03;;;8.10;99.90;;;;;;5007535;28;20049;-72
2023/02/02 04:05:28;;;;;;;8.73;1.45;;;8.10;99.90;;;;;;5008081;28;20768;-71
2023/02/02 04:07:54;;;;;;;10.85;1.40;;;8.10;99.90;;;;;;5004967;28;20037;-71
2023/02/02 04:10:19;;;;;;;12.82;2.05;;;8.10;99.90;;;;;;5006937;28;20041;-73
2023/02/02 04:12:45;;;;;;;6.80;1.60;;;8.10;99.90;;;;;;5007420;28;20124;-71
2023/02/02 04:15:11;;;;;;;16.35;2.47;;;8.10;99.90;;;;;;5007639;28;20145;-71
2023/02/02 04:17:37;;;;;;;15.10;1.63;;;8.10;99.90;;;;;;5010617;28;20059;-72
2023/02/02 04:20:04;;;;;;;13.35;1.90;;;8.10;99.90;;;;;;5006083;28;20554;-71
2023/02/02 04:22:30;;;;;;;15.18;3.10;;;8.10;99.90;;;;;;5005756;28;20040;-71
2023/02/02 04:24:56;;;;;;;9.63;1.60;;;8.10;99.90;;;;;;5005754;28;20030;-71
2023/02/02 04:27:22;;;;;;;12.52;1.77;;;8.10;99.90;;;;;;5006738;28;20415;-71
2023/02/02 04:29:47;;;;;;;23.33;1.98;;;8.10;99.90;;;;;;5006275;28;20663;-73
2023/02/02 04:32:16;;;;;;;15.63;1.42;;;8.20;99.90;;;;;;5005942;28;20670;-73
2023/02/02 04:34:43;;;;;;;17.10;2.20;;;8.20;99.90;;;;;;5006048;28;20076;-71
2023/02/02 04:37:09;;;;;;;10.85;1.52;;;8.20;99.90;;;;;;5004083;28;20046;-71
2023/02/02 04:39:35;;;;;;;15.32;1.52;;;8.20;99.90;;;;;;5004688;28;20108;-72
2023/02/02 04:42:01;;;;;;;13.82;1.83;;;8.10;99.90;;;;;;5006978;28;20034;-72
2023/02/02 04:44:27;;;;;;;11.68;1.95;;;8.20;99.90;;;;;;5007003;28;20029;-71
2023/02/02 04:46:53;;;;;;;17.23;2.25;;;8.10;99.90;;;;;;5005175;28;20026;-72
2023/02/02 04:49:18;;;;;;;18.60;1.83;;;8.20;99.90;;;;;;5006585;28;20128;-71
2023/02/02 04:51:44;;;;;;;13.02;1.60;;;8.20;99.90;;;;;;5006083;28;20740;-71
2023/02/02 04:54:09;;;;;;;13.68;2.40;;;8.10;99.90;;;;;;5007307;28;20042;-71
2023/02/02 04:56:35;;;;;;;13.38;1.75;;;8.20;99.90;;;;;;5006834;28;20065;-71
2023/02/02 04:59:01;;;;;;;7.13;1.20;;;8.30;99.90;;;;;;5007798;28;20037;-70
2023/02/02 05:01:28;;;;;;;18.80;2.38;;;8.30;99.90;;;;;;5007078;28;20044;-72
2023/02/02 05:03:54;;;;;;;14.38;1.67;;;8.30;99.90;;;;;;5007303;28;24918;-71
2023/02/02 05:06:19;;;;;;;11.55;1.88;;;8.30;99.90;;;;;;5006954;28;20030;-71
2023/02/02 05:08:47;;;;;;;13.20;1.60;;;8.30;99.90;;;;;;5004949;28;20104;-71
2023/02/02 05:11:15;;;;;;;8.38;2.00;;;8.30;99.90;;;;;;5006469;28;20037;-72
2023/02/02 05:13:49;;;;;;;18.13;2.75;;;8.30;99.90;;;;;;5005473;28;20490;-71
2023/02/02 05:16:15;;;;;;;11.25;2.10;;;8.30;99.90;;;;;;5007105;28;20037;-72
2023/02/02 05:18:42;;;;;;;13.57;2.28;;;8.30;99.90;;;;;;5010306;28;20034;-71
2023/02/02 05:21:08;;;;;;;12.00;1.48;;;8.30;99.90;;;;;;5007626;28;20224;-71
2023/02/02 05:23:34;;;;;;;9.77;2.88;;;8.30;99.90;;;;;;5007041;28;20398;-71
2023/02/02 05:25:59;;;;;;;13.65;1.88;;;8.30;99.90;;;;;;5006311;28;20030;-71
2023/02/02 05:28:25;;;;;;;8.82;1.42;;;8.30;99.90;;;;;;5006810;28;20034;-71
2023/02/02 05:30:51;;;;;;;13.50;2.28;;;8.30;99.90;;;;;;5001995;28;20042;-71
2023/02/02 05:33:18;;;;;;;9.43;1.42;;;8.30;99.90;;;;;;5002011;28;20039;-73
2023/02/02 05:35:48;;;;;;;8.00;2.15;;;8.30;99.90;;;;;;5007776;28;20117;-71
2023/02/02 05:38:14;;;;;;;7.78;0.93;;;8.30;99.90;;;;;;5010396;28;20491;-72
2023/02/02 05:40:40;;;;;;;8.32;1.45;;;8.30;99.90;;;;;;5003151;28;20041;-71
2023/02/02 05:43:06;;;;;;;15.60;1.15;;;8.30;99.90;;;;;;5000286;28;20026;-71
2023/02/02 05:45:31;;;;;;;11.18;1.67;;;8.20;99.90;;;;;;5000441;28;20106;-71
2023/02/02 05:47:57;;;;;;;10.23;1.30;;;8.20;99.90;;;;;;5002816;28;20038;-71
2023/02/02 05:50:23;;;;;;;10.52;1.30;;;8.20;99.90;;;;;;5003671;28;20087;-71
2023/02/02 05:52:49;;;;;;;8.52;1.52;;;8.20;99.90;;;;;;5003504;28;20121;-73
2023/02/02 05:55:16;;;;;;;8.20;1.50;;;8.20;99.90;;;;;;5005302;28;20410;-71
2023/02/02 05:57:42;;;;;;;13.90;1.83;;;8.20;99.90;;;;;;5009703;28;20028;-71
2023/02/02 06:00:08;;;;;;;8.13;1.85;;;8.20;99.90;;;;;;5009791;28;20048;-71
2023/02/02 06:02:34;;;;;;;7.45;1.77;;;8.20;99.90;;;;;;5007565;28;20037;-72
2023/02/02 06:04:59;;;;;;;9.85;1.40;;;8.20;99.90;;;;;;5009984;28;20121;-72
2023/02/02 06:07:25;;;;;;;11.15;2.10;;;8.20;99.90;;;;;;5005355;28;20769;-72
2023/02/02 06:09:50;;;;;;;12.75;1.38;;;8.20;99.90;;;;;;5005897;28;20139;-72
2023/02/02 06:12:17;;;;;;;15.77;2.42;;;8.20;99.90;;;;;;5005236;28;20040;-74
2023/02/02 06:14:43;;;;;;;8.80;1.20;;;8.20;99.90;;;;;;5000627;28;20049;-73
2023/02/02 06:17:09;;;;;;;9.80;1.48;;;8.20;99.90;;;;;;5003266;28;20030;-72
2023/02/02 06:19:34;;;;;;;15.77;2.95;;;8.10;99.90;;;;;;5005858;28;20065;-72
2023/02/02 06:22:00;;;;;;;7.00;1.10;;;8.20;99.90;;;;;;4999895;28;20033;-72
2023/02/02 06:24:25;;;;;;;12.75;2.13;;;8.20;99.90;;;;;;5007794;28;20038;-72
2023/02/02 06:26:51;;;;;;;10.45;1.58;;;8.10;99.90;;;;;;5007450;28;20521;-72
2023/02/02 06:29:16;;;;;;;12.65;2.17;;;8.20;99.90;;;;;;5001063;28;20501;-73
2023/02/02 06:31:42;;;;;;;12.75;2.08;;;8.10;99.90;;;;;;5002084;28;20038;-72
2023/02/02 06:34:13;;;;;;;13.02;2.35;;;8.10;99.90;;;;;;5007782;28;20172;-73
2023/02/02 06:36:39;;;;;;;16.60;1.67;;;8.10;99.90;;;;;;5003845;28;20052;-72
2023/02/02 06:39:06;;;;;;;23.25;2.03;;;8.10;99.90;;;;;;5004775;28;20034;-71
2023/02/02 06:41:35;;;;;;;15.43;1.73;;;8.10;99.90;;;;;;5005309;28;20466;-73
2023/02/02 06:44:01;;;;;;;12.68;2.35;;;8.10;99.90;;;;;;5003976;28;20057;-71
2023/02/02 06:46:27;;;;;;;10.18;1.20;;;8.10;99.90;;;;;;5003927;28;20037;-71
2023/02/02 06:48:52;;;;;;;13.75;1.60;;;8.10;99.90;;;;;;5002158;28;20026;-72
2023/02/02 06:51:18;;;;;;;12.30;1.90;;;8.10;99.90;;;;;;5000552;28;20038;-71
2023/02/02 06:53:48;;;;;;;11.25;2.10;;;8.10;99.90;;;;;;5001188;28;20088;-72
2023/02/02 06:56:13;;;;;;;24.73;2.22;;;8.10;99.90;;;;;;4999802;28;20033;-71
2023/02/02 06:58:40;;;;;;;10.65;2.63;;;8.00;99.90;;;;;;5005171;28;20030;-72
2023/02/02 07:01:08;;;;;;;11.98;1.55;;;8.00;99.90;;;;;;5003208;28;20038;-70
2023/02/02 07:03:34;;;;;;;16.08;2.10;;;8.10;99.90;;;;;;5001007;28;20513;-71
2023/02/02 07:06:21;;;;;;;9.43;1.73;;;8.00;99.90;;;;;;5003177;28;20042;-72
2023/02/02 07:08:49;;;;;;;11.77;1.50;;;8.00;99.90;;;;;;4998822;28;20030;-71
2023/02/02 07:11:15;;;;;;;14.43;1.63;;;8.00;99.90;;;;;;5001299;28;20112;-71
2023/02/02 07:13:41;;;;;;;8.63;1.50;;;8.00;99.90;;;;;;5004176;28;20029;-71
2023/02/02 07:16:11;;;;;;;12.50;1.55;;;7.90;99.90;;;;;;5000610;28;20324;-72
2023/02/02 07:18:38;;;;;;;12.18;2.00;;;7.90;99.90;;;;;;5003555;28;20961;-71
2023/02/02 07:21:04;;;;;;;10.15;2.08;;;7.90;99.90;;;;;;5002226;28;20105;-71
2023/02/02 07:23:32;;;;;;;14.95;2.83;;;7.90;99.90;;;;;;5003169;28;20604;-70
2023/02/02 07:26:05;;;;;;;11.43;1.80;;;7.90;99.90;;;;;;5003536;28;20034;-72
2023/02/02 07:28:32;;;;;;;11.68;1.77;;;7.90;99.90;;;;;;5005611;28;20056;-71
2023/02/02 07:30:57;;;;;;;16.38;1.63;;;7.90;99.90;;;;;;5003151;28;20117;-72
2023/02/02 07:33:23;;;;;;;14.57;1.60;;;7.90;99.90;;;;;;5002845;28;20125;-71
2023/02/02 07:35:49;;;;;;;18.70;1.95;;;7.80;99.90;;;;;;4993176;28;20141;-72
2023/02/02 07:38:15;;;;;;;17.17;1.73;;;7.90;99.90;;;;;;5002337;28;20030;-72
2023/02/02 07:40:40;;;;;;;10.00;1.77;;;7.90;99.90;;;;;;5006853;28;20064;-74
2023/02/02 07:43:06;;;;;;;11.43;1.23;;;7.90;99.90;;;;;;5003383;28;20034;-71
2023/02/02 07:45:31;;;;;;;10.45;1.42;;;7.90;99.90;;;;;;5000780;28;20043;-72
2023/02/02 07:48:00;;;;;;;14.98;2.90;;;7.90;99.90;;;;;;5003123;28;20057;-71
2023/02/02 07:50:28;;;;;;;15.32;2.95;;;7.90;99.90;;;;;;5004536;28;20049;-71
2023/02/02 07:52:54;;;;;;;18.88;1.88;;;8.00;99.90;;;;;;5003330;28;20033;-71
2023/02/02 07:55:21;;;;;;;11.38;1.27;;;7.90;99.90;;;;;;5001943;28;20041;-71
2023/02/02 07:57:46;;;;;;;7.53;1.98;;;8.00;99.90;;;;;;5001431;28;20038;-71
2023/02/02 08:00:13;;;;;;;10.35;1.90;;;8.00;99.90;;;;;;4998861;28;20521;-72
2023/02/02 08:02:38;;;;;;;14.95;2.25;;;8.00;99.90;;;;;;4989608;28;20484;-72
2023/02/02 08:05:06;;;;;;;10.90;1.85;;;8.00;99.90;;;;;;4991517;28;20070;-71
2023/02/02 08:07:33;;;;;;;18.60;2.60;;;8.00;99.90;;;;;;4995088;28;20085;-72
2023/02/02 08:09:59;;;;;;;8.23;1.15;;;8.00;99.90;;;;;;5003554;28;20429;-73
2023/02/02 08:12:25;;;;;;;14.98;1.52;;;8.10;99.90;;;;;;4999820;28;20030;-72
2023/02/02 08:14:51;;;;;;;16.15;1.35;;;8.10;99.90;;;;;;5002769;28;20038;-72
2023/02/02 08:17:17;;;;;;;26.15;2.58;;;8.10;99.90;;;;;;4992011;28;20048;-72
2023/02/02 08:19:43;;;;;;;11.88;1.38;;;8.10;99.90;;;;;;5000439;28;20045;-72
2023/02/02 08:22:08;;;;;;;10.60;1.30;;;8.10;99.90;;;;;;5001672;28;20036;-71
2023/02/02 08:24:39;;;;;;;5.75;1.33;;;8.20;99.90;;;;;;5000986;28;20064;-72
2023/02/02 08:27:06;;;;;;;14.60;2.70;;;8.20;99.90;;;;;;5004153;28;20145;-70
2023/02/02 08:29:31;;;;;;;10.23;1.25;;;8.20;99.90;;;;;;5001659;28;20042;-72
2023/02/02 08:31:57;;;;;;;9.55;2.22;;;8.20;99.90;;;;;;4999852;28;20137;-72
2023/02/02 08:34:23;;;;;;;5.95;1.33;;;8.30;99.90;;;;;;4999006;28;20038;-72
2023/02/02 08:36:48;;;;;;;8.93;1.70;;;8.30;99.90;;;;;;4999227;28;20038;-72
2023/02/02 08:39:14;;;;;;;10.98;1.45;;;8.30;99.90;;;;;;5000923;28;20123;-72
2023/02/02 08:41:39;;;;;;;10.80;1.13;;;8.30;99.90;;;;;;5002266;28;20037;-72
2023/02/02 08:44:11;;;;;;;16.98;2.85;;;8.40;99.90;;;;;;4997486;28;20423;-72
2023/02/02 08:46:36;;;;;;;17.63;2.30;;;8.40;99.90;;;;;;4998537;28;20514;-72
2023/02/02 08:49:02;;;;;;;8.90;1.58;;;8.50;99.90;;;;;;5001353;28;20034;-71
2023/02/02 08:51:28;;;;;;;12.98;1.50;;;8.50;99.90;;;;;;5000663;28;20057;-72
2023/02/02 08:53:53;;;;;;;10.18;1.40;;;8.50;99.90;;;;;;4999009;28;20113;-71
2023/02/02 08:56:21;;;;;;;8.80;1.13;;;8.70;99.90;;;;;;5003500;28;20039;-71
2023/02/02 08:58:52;;;;;;;9.95;1.33;;;8.70;99.90;;;;;;5002299;28;20576;-71
2023/02/02 09:01:21;;;;;;;19.48;3.53;;;8.80;99.90;;;;;;5000034;28;20482;-71
2023/02/02 09:03:46;;;;;;;7.20;1.20;;;8.80;99.90;;;;;;4999690;28;20034;-70
2023/02/02 09:06:15;;;;;;;10.77;1.75;;;8.80;99.90;;;;;;5002398;28;20041;-71
2023/02/02 09:08:41;;;;;;;8.32;1.58;;;8.90;99.90;;;;;;4999368;28;20065;-72
2023/02/02 09:11:13;;;;;;;16.63;2.40;;;9.00;99.90;;;;;;5004454;28;20053;-71
2023/02/02 09:13:40;;;;;;;12.60;1.65;;;9.00;99.90;;;;;;5003774;28;20061;-71
2023/02/02 09:16:09;;;;;;;11.10;1.85;;;9.00;99.90;;;;;;5003540;28;20628;-71
2023/02/02 09:18:35;;;;;;;6.28;0.98;;;9.00;99.90;;;;;;5002317;28;20033;-71
2023/02/02 09:21:02;;;;;;;12.07;2.38;;;9.00;99.90;;;;;;5007525;28;20030;-71
2023/02/02 09:23:32;;;;;;;15.18;1.55;;;9.10;99.90;;;;;;5004189;28;20066;-70
2023/02/02 09:26:24;;;;;;;5.93;0.85;;;9.10;99.90;;;;;;5005786;28;20445;-72
2023/02/02 09:28:55;;;;;;;7.07;1.38;;;9.10;99.90;;;;;;5001822;28;20467;-72
2023/02/02 09:31:22;;;;;;;8.88;1.17;;;9.10;99.90;;;;;;5006554;28;20030;-70
2023/02/02 09:33:47;;;;;;;3.40;0.90;;;9.10;99.90;;;;;;5003208;28;20040;-71
2023/02/02 09:36:19;;;;;;;16.63;1.73;;;9.10;99.90;;;;;;5000826;28;20422;-72
2023/02/02 09:38:45;;;;;;;13.27;1.48;;;9.10;99.90;;;;;;5005947;28;20122;-71
2023/02/02 09:41:35;;;;;;;10.45;1.08;;;9.10;99.90;;;;;;5003328;28;20026;-72
2023/02/02 09:44:31;;;;;;;11.02;1.30;;;9.10;99.90;;;;;;5004515;28;20038;-72
2023/02/02 09:47:36;;;;;;;15.52;3.20;;;9.10;99.90;;;;;;5001861;28;20045;-72
2023/02/02 09:50:15;;;;;;;9.60;1.63;;;9.10;99.90;;;;;;5009299;28;20093;-72
2023/02/02 09:52:52;;;;;;;11.85;2.08;;;9.10;99.90;;;;;;5004618;28;20045;-71
2023/02/02 09:55:43;;;;;;;7.97;1.50;;;9.20;99.90;;;;;;5006504;28;20498;-71
2023/02/02 09:58:18;;;;;;;11.77;1.42;;;9.20;99.90;;;;;;5000726;28;20085;-72
2023/02/02 10:00:59;;;;;;;17.17;1.65;;;9.20;99.90;;;;;;5000059;28;20045;-72
2023/02/02 10:03:42;;;;;;;9.75;1.42;;;9.30;99.90;;;;;;5002268;28;20038;-71
2023/02/02 10:06:25;;;;;;;15.07;1.95;;;9.30;99.90;;;;;;5005945;28;20046;-73
2023/02/02 10:09:01;;;;;;;11.85;1.02;;;9.30;99.90;;;;;;4996861;28;20038;-74
2023/02/02 10:11:42;;;;;;;10.00;2.08;;;9.30;99.90;;;;;;5002763;28;20087;-71
2023/02/02 10:14:15;;;;;;;;;;;9.30;99.90;;;;;;4993331;28;20117;-72
2023/02/02 10:16:40;;;;;;;9.85;2.08;;;9.30;99.90;;;;;;5002594;28;19921;-73
2023/02/02 10:19:11;;;;;;;5.45;1.05;;;9.30;99.90;;;;;;5007245;28;20053;-72
2023/02/02 10:22:05;;;;;;;13.23;2.42;;;9.20;99.90;;;;;;5003599;28;20065;-71
2023/02/02 10:24:31;;;;;;;13.95;1.13;;;9.30;99.90;;;;;;5007207;28;20041;-72
2023/02/02 10:27:05;;;;;;;9.23;1.95;;;9.30;99.90;;;;;;5006157;28;20112;-71
2023/02/02 10:29:49;;;;;;;11.43;1.52;;;9.30;99.90;;;;;;5002411;28;20049;-73
2023/02/02 10:32:38;;;;;;;12.98;1.25;;;9.40;99.90;;;;;;5000754;28;20411;-71
2023/02/02 10:35:25;;;;;;;21.52;1.30;;;9.40;99.90;;;;;;4995525;28;20041;-73
2023/02/02 10:38:08;;;;;;;10.95;2.15;;;9.40;99.90;;;;;;5014726;28;20622;-72
2023/02/02 10:41:04;;;;;;;11.43;1.42;;;9.40;99.90;;;;;;5006571;28;20133;-71
2023/02/02 10:43:44;;;;;;;8.73;0.68;;;9.40;99.90;;;;;;5006815;28;20046;-71
2023/02/02 10:46:29;;;;;;;10.30;1.17;;;9.40;99.90;;;;;;4996994;28;20053;-71
2023/02/02 10:49:24;;;;;;;9.05;1.52;;;9.40;99.90;;;;;;4997718;28;20137;-74
2023/02/02 10:52:04;;;;;;;6.10;1.90;;;9.40;99.90;;;;;;5003748;28;20387;-72
2023/02/02 10:54:48;;;;;;;5.75;0.70;;;9.40;99.90;;;;;;4973278;28;20074;-72
2023/02/02 10:57:18;;;;;;;11.95;2.20;;;9.50;99.90;;;;;;4974673;28;20092;-70
2023/02/02 11:00:04;;;;;;;11.85;1.02;;;9.50;99.90;;;;;;4974906;28;20097;-71
2023/02/02 11:02:30;;;;;;;8.95;1.13;;;9.60;99.90;;;;;;4976144;28;20030;-72
2023/02/02 11:07:40;;;;;;;8.13;0.90;;;9.60;99.90;;;;;;4976944;28;20060;-73
2023/02/02 11:10:06;;;;;;;9.65;1.38;;;9.70;99.90;;;;;;4973997;28;20410;-71
2023/02/02 11:12:34;;;;;;;15.65;1.83;;;9.80;99.90;;;;;;4980398;28;20061;-72
2023/02/02 11:15:06;;;;;;;8.27;1.30;;;9.90;99.90;;;;;;4977110;28;20026;-72
2023/02/02 11:17:33;;;;;;;9.57;2.35;;;9.90;99.90;;;;;;4977702;28;20046;-72
2023/02/02 11:19:59;;;;;;;7.22;1.15;;;9.90;99.90;;;;;;4977562;28;20041;-71
2023/02/02 11:22:34;;;;;;;14.02;1.52;;;10.00;99.90;;;;;;4975041;28;20042;-72
2023/02/02 11:25:31;;;;;;;5.15;0.77;;;10.10;99.90;;;;;;4976556;28;20037;-70
2023/02/02 11:27:57;;;;;;;11.82;1.17;;;10.10;99.90;;;;;;4977360;28;20034;-72
2023/02/02 11:30:39;;;;;;;8.20;1.08;;;10.00;99.90;;;;;;4975011;28;20046;-71
2023/02/02 11:33:22;;;;;;;6.32;1.00;;;10.00;99.90;;;;;;4974028;28;20043;-71
2023/02/02 11:36:15;;;;;;;6.00;0.80;;;10.00;99.90;;;;;;4976945;28;20049;-70
2023/02/02 11:38:41;;;;;;;8.90;1.52;;;10.10;99.90;;;;;;4976198;28;20101;-71
2023/02/02 11:41:09;;;;;;;5.80;1.00;;;10.10;99.90;;;;;;4971576;28;20062;-71
2023/02/02 11:43:40;;;;;;;5.85;0.95;;;10.00;99.90;;;;;;4976594;28;20105;-71
2023/02/02 11:46:18;;;;;;;8.95;0.80;;;10.10;99.90;;;;;;4975321;28;20153;-71
2023/02/02 11:49:00;;;;;;;5.00;1.00;;;10.10;99.90;;;;;;4975074;28;20134;-73
2023/02/02 11:51:27;;;;;;;7.45;1.35;;;10.10;99.90;;;;;;4970335;28;20475;-72
2023/02/02 11:54:13;;;;;;;2.90;0.70;;;10.10;99.90;;;;;;4979321;28;20042;-71
2023/02/02 11:56:39;;;;;;;7.55;1.50;;;10.10;99.90;;;;;;4977495;28;20034;-73
2023/02/02 11:59:24;;;;;;;7.85;1.05;;;10.00;99.90;;;;;;4973897;28;20180;-71
2023/02/02 12:01:50;;;;;;;8.00;0.82;;;10.00;99.90;;;;;;4970223;28;20031;-71
2023/02/02 12:04:15;;;;;;;8.80;1.98;;;10.00;99.90;;;;;;4977091;28;20039;-71
2023/02/02 12:06:41;;;;;;;11.35;1.92;;;10.00;99.90;;;;;;4973717;28;20498;-72
2023/02/02 12:09:20;;;;;;;8.23;0.98;;;10.00;99.90;;;;;;4972011;28;20031;-72
2023/02/02 12:12:08;;;;;;;11.93;1.83;;;10.00;99.90;;;;;;4973045;28;20137;-72
2023/02/02 12:14:34;;;;;;;9.15;1.30;;;9.90;99.90;;;;;;4976931;28;20058;-73
2023/02/02 12:17:20;;;;;;;6.45;1.05;;;9.80;99.90;;;;;;4977718;28;20042;-72
2023/02/02 12:20:01;;;;;;;10.00;0.95;;;9.80;99.90;;;;;;4976222;28;20042;-72
2023/02/02 12:22:46;;;;;;;11.60;1.73;;;9.70;99.90;;;;;;4975268;28;20054;-72
2023/02/02 12:25:36;;;;;;;9.18;1.25;;;9.70;99.90;;;;;;4978855;28;20027;-73
2023/02/02 12:28:46;;;;;;;13.30;1.23;;;9.60;99.90;;;;;;4981454;28;20038;-72
2023/02/02 12:31:36;;;;;;;6.47;0.98;;;9.60;99.90;;;;;;4974925;28;20522;-71
2023/02/02 12:34:14;;;;;;;12.32;2.50;;;9.60;99.90;;;;;;4975376;28;20042;-71
2023/02/02 12:36:39;;;;;;;5.00;0.80;;;9.70;99.90;;;;;;4970778;28;20148;-71
2023/02/02 12:39:55;;;;;;;6.57;0.80;;;9.70;99.90;;;;;;4976333;28;20518;-71
2023/02/02 12:42:33;;;;;;;7.13;1.20;;;9.60;99.90;;;;;;4956277;28;20030;-72
2023/02/02 12:45:16;;;;;;;6.22;1.10;;;9.60;99.90;;;;;;4956304;28;20137;-72
2023/02/02 12:48:14;;;;;;;9.75;0.90;;;9.50;99.90;;;;;;4972830;28;20158;-71
2023/02/02 12:51:01;;;;;;;8.52;0.77;;;9.50;99.90;;;;;;4976335;28;20038;-74
2023/02/02 12:53:42;;;;;;;9.00;0.90;;;9.50;99.90;;;;;;4972913;28;20410;-71
2023/02/02 12:56:34;;;;;;;8.20;0.93;;;9.40;99.90;;;;;;4976449;28;20035;-72
2023/02/02 12:59:20;;;;;;;6.30;1.00;;;9.40;99.90;;;;;;4978409;28;20050;-72
2023/02/02 13:01:46;;;;;;;6.13;0.70;;;9.50;99.90;;;;;;4972438;28;20759;-73
2023/02/02 13:04:34;;;;;;;9.65;2.25;;;9.40;99.90;;;;;;4974436;28;20122;-72
2023/02/02 13:07:28;;;;;;;5.28;1.75;;;9.50;99.90;;;;;;4975378;28;20419;-71
2023/02/02 13:10:27;;;;;;;6.97;1.70;;;9.40;99.90;;;;;;4979871;28;20113;-71
2023/02/02 13:13:15;;;;;;;5.85;1.40;;;9.40;99.90;;;;;;4975979;28;20784;-72
2023/02/02 13:15:45;;;;;;;4.63;1.10;;;9.40;99.90;;;;;;4969311;28;20077;-71
2023/02/02 13:18:20;;;;;;;11.65;1.83;;;9.30;99.90;;;;;;4972824;28;20090;-72
2023/02/02 13:20:51;;;;;;;11.38;2.47;;;9.20;99.90;;;;;;4976907;28;20153;-73
2023/02/02 13:23:26;;;;;;;5.53;1.23;;;9.20;99.90;;;;;;4976824;28;20418;-71